Time;durP1;ratioP1;P1;durP2;ratioP2;P2;SDS_P1;SDS_P2;PMS_P1;PMS_P2;Temp;Humidity;BMP_temperature;BMP_pressure;BME280_temperature;BME280_humidity;BME280_pressure;Samples;Min_cycle;Max_cycle;Signal;HPM_P1;HPM_P2
2021/12/28 00:01:06;;;;;;;49.57;23.17;;;;;;;;;;5032186;28;20468;-36
2021/12/28 00:03:34;;;;;;;50.03;23.52;;;;;;;;;;5035138;28;20300;-36
2021/12/28 00:06:00;;;;;;;47.42;23.88;;;;;;;;;;5024612;28;20107;-34
2021/12/28 00:08:26;;;;;;;50.28;24.10;;;;;;;;;;5022399;28;20416;-36
2021/12/28 00:10:52;;;;;;;50.00;23.30;;;;;;;;;;5023133;28;20032;-36
2021/12/28 00:13:18;;;;;;;51.40;24.98;;;;;;;;;;5002499;28;20400;-36
2021/12/28 00:18:37;;;;;;;51.75;24.17;;;;;;;;;;5002989;28;20040;-36
2021/12/28 00:21:04;;;;;;;47.45;22.83;;;;;;;;;;5004453;28;20026;-35
2021/12/28 00:23:36;;;;;;;46.30;23.13;;;;;;;;;;5018105;28;20021;-36
2021/12/28 00:26:03;;;;;;;51.75;24.42;;;;;;;;;;5020694;28;20033;-36
2021/12/28 00:28:29;;;;;;;49.63;24.70;;;;;;;;;;5022663;28;20049;-35
2021/12/28 00:30:55;;;;;;;48.50;23.70;;;;;;;;;;5018543;28;20057;-36
2021/12/28 00:33:23;;;;;;;52.53;22.85;;;;;;;;;;5018322;28;20033;-36
2021/12/28 00:35:49;;;;;;;58.45;24.48;;;;;;;;;;5018090;28;20018;-35
2021/12/28 00:38:18;;;;;;;48.33;23.23;;;;;;;;;;5014555;28;20045;-35
2021/12/28 00:40:45;;;;;;;45.15;23.27;;;;;;;;;;5017859;28;20029;-36
2021/12/28 00:43:11;;;;;;;46.40;23.10;;;;;;;;;;5025246;28;20083;-36
2021/12/28 00:45:37;;;;;;;45.15;23.35;;;;;;;;;;5023459;28;20091;-35
2021/12/28 00:48:03;;;;;;;46.10;22.98;;;;;;;;;;5019530;28;20053;-35
2021/12/28 00:50:29;;;;;;;49.15;22.88;;;;;;;;;;5017453;28;20109;-35
2021/12/28 00:52:56;;;;;;;51.72;24.60;;;;;;;;;;5017855;28;20026;-35
2021/12/28 00:55:22;;;;;;;55.58;22.88;;;;;;;;;;5020786;28;20075;-35
2021/12/28 00:57:49;;;;;;;49.35;23.85;;;;;;;;;;5023553;28;20083;-35
2021/12/28 01:00:17;;;;;;;49.67;23.75;;;;;;;;;;5020062;28;20026;-34
2021/12/28 01:02:43;;;;;;;47.33;22.88;;;;;;;;;;5021537;28;20112;-34
2021/12/28 01:05:09;;;;;;;47.35;24.10;;;;;;;;;;5020441;28;20053;-35
2021/12/28 01:07:35;;;;;;;48.17;23.17;;;;;;;;;;5017532;28;20030;-34
2021/12/28 01:10:03;;;;;;;49.78;23.92;;;;;;;;;;5018637;28;20030;-35
2021/12/28 01:12:29;;;;;;;47.20;23.95;;;;;;;;;;5045034;22;20041;-43
2021/12/28 01:14:55;;;;;;;52.45;25.65;;;;;;;;;;5018056;28;20088;-42
2021/12/28 01:17:21;;;;;;;51.15;24.23;;;;;;;;;;5017285;28;20105;-44
2021/12/28 01:19:47;;;;;;;48.35;24.02;;;;;;;;;;5015514;28;20487;-45
2021/12/28 01:22:13;;;;;;;47.38;23.45;;;;;;;;;;5019519;28;20021;-43
2021/12/28 01:24:39;;;;;;;53.67;25.23;;;;;;;;;;5017235;28;20062;-44
2021/12/28 01:27:05;;;;;;;53.92;26.20;;;;;;;;;;5018410;28;20054;-43
2021/12/28 01:29:32;;;;;;;51.60;26.70;;;;;;;;;;5020205;28;20065;-42
2021/12/28 01:31:59;;;;;;;49.85;24.70;;;;;;;;;;5018882;28;20137;-43
2021/12/28 01:34:25;;;;;;;51.10;25.40;;;;;;;;;;5015852;28;20421;-44
2021/12/28 01:36:51;;;;;;;57.42;26.17;;;;;;;;;;5016873;28;20370;-43
2021/12/28 01:39:17;;;;;;;56.28;25.42;;;;;;;;;;5017784;28;20018;-42
2021/12/28 01:41:43;;;;;;;56.50;27.88;;;;;;;;;;5020535;28;20073;-42
2021/12/28 01:44:10;;;;;;;52.53;25.95;;;;;;;;;;5018194;28;20059;-44
2021/12/28 01:46:36;;;;;;;64.13;27.55;;;;;;;;;;5018576;28;20092;-42
2021/12/28 01:49:03;;;;;;;55.50;25.50;;;;;;;;;;5018238;28;20030;-43
2021/12/28 01:51:29;;;;;;;51.80;26.85;;;;;;;;;;5015786;28;20022;-43
2021/12/28 01:53:57;;;;;;;53.20;24.33;;;;;;;;;;5016790;28;20033;-44
2021/12/28 01:56:25;;;;;;;47.08;23.58;;;;;;;;;;5015961;28;20381;-43
2021/12/28 01:58:51;;;;;;;48.55;25.50;;;;;;;;;;5016643;28;20354;-43
2021/12/28 02:01:17;;;;;;;50.13;22.90;;;;;;;;;;5018374;28;20091;-44
2021/12/28 02:03:44;;;;;;;52.08;26.38;;;;;;;;;;5016991;28;20025;-43
2021/12/28 02:06:10;;;;;;;49.72;24.08;;;;;;;;;;5020512;28;20067;-43
2021/12/28 02:08:37;;;;;;;52.28;24.33;;;;;;;;;;5021170;28;20118;-44
2021/12/28 02:11:03;;;;;;;46.83;23.98;;;;;;;;;;5030765;28;20068;-44
2021/12/28 02:13:30;;;;;;;56.58;24.98;;;;;;;;;;5031680;28;20033;-45
2021/12/28 02:15:59;;;;;;;47.25;24.17;;;;;;;;;;5031733;28;20021;-44
2021/12/28 02:18:27;;;;;;;50.45;24.58;;;;;;;;;;5031507;28;20110;-40
2021/12/28 02:20:54;;;;;;;55.00;24.55;;;;;;;;;;5031725;28;20033;-43
2021/12/28 02:23:21;;;;;;;50.90;23.40;;;;;;;;;;5031908;28;20025;-44
2021/12/28 02:25:47;;;;;;;51.65;23.92;;;;;;;;;;5032013;28;20026;-43
2021/12/28 02:28:14;;;;;;;54.70;24.08;;;;;;;;;;5032228;28;20105;-44
2021/12/28 02:30:41;;;;;;;44.00;24.08;;;;;;;;;;5031523;28;20163;-43
2021/12/28 02:33:08;;;;;;;46.35;22.58;;;;;;;;;;5031678;28;20032;-43
2021/12/28 02:35:34;;;;;;;53.17;24.77;;;;;;;;;;5031068;28;20018;-43
2021/12/28 02:38:01;;;;;;;47.35;22.48;;;;;;;;;;5032101;28;20103;-43
2021/12/28 02:40:28;;;;;;;44.72;23.13;;;;;;;;;;5033163;28;20052;-42
2021/12/28 02:42:56;;;;;;;45.42;24.42;;;;;;;;;;5031419;28;20023;-43
2021/12/28 02:45:24;;;;;;;47.10;24.52;;;;;;;;;;5031615;28;20109;-44
2021/12/28 02:47:50;;;;;;;50.05;23.17;;;;;;;;;;5031627;28;20034;-42
2021/12/28 02:50:18;;;;;;;48.13;22.48;;;;;;;;;;5031333;28;20064;-43
2021/12/28 02:52:44;;;;;;;47.42;23.90;;;;;;;;;;5030837;28;20388;-42
2021/12/28 02:55:11;;;;;;;46.15;22.33;;;;;;;;;;5031094;28;20053;-43
2021/12/28 02:57:38;;;;;;;46.55;22.95;;;;;;;;;;5031279;28;20095;-43
2021/12/28 03:00:06;;;;;;;39.78;20.52;;;;;;;;;;5024817;28;20030;-44
2021/12/28 03:02:32;;;;;;;45.30;22.23;;;;;;;;;;5030441;28;20057;-43
2021/12/28 03:04:58;;;;;;;41.30;21.52;;;;;;;;;;5023789;28;20056;-42
2021/12/28 03:07:25;;;;;;;48.30;23.65;;;;;;;;;;5024656;28;20464;-43
2021/12/28 03:09:50;;;;;;;50.30;23.33;;;;;;;;;;5030591;28;20356;-43
2021/12/28 03:12:17;;;;;;;43.08;20.35;;;;;;;;;;5030159;28;20116;-42
2021/12/28 03:14:43;;;;;;;39.60;21.75;;;;;;;;;;5030808;28;20052;-42
2021/12/28 03:17:09;;;;;;;41.75;21.63;;;;;;;;;;5030881;28;20040;-42
2021/12/28 03:19:35;;;;;;;36.60;19.88;;;;;;;;;;5030332;28;20017;-43
2021/12/28 03:22:01;;;;;;;40.38;20.35;;;;;;;;;;5011047;28;20467;-43
2021/12/28 03:24:27;;;;;;;42.40;21.98;;;;;;;;;;5017050;28;20036;-43
2021/12/28 03:26:53;;;;;;;40.50;20.95;;;;;;;;;;5030361;28;20033;-43
2021/12/28 03:29:20;;;;;;;37.25;20.45;;;;;;;;;;5030596;28;20120;-43
2021/12/28 03:31:47;;;;;;;45.05;22.17;;;;;;;;;;5030907;28;20421;-44
2021/12/28 03:34:13;;;;;;;45.05;22.23;;;;;;;;;;5030715;28;20101;-42
2021/12/28 03:36:41;;;;;;;46.17;21.33;;;;;;;;;;5030078;28;20090;-44
2021/12/28 03:39:07;;;;;;;41.60;21.85;;;;;;;;;;5030467;28;20022;-43
2021/12/28 03:41:33;;;;;;;47.08;21.33;;;;;;;;;;5029370;28;20045;-43
2021/12/28 03:44:00;;;;;;;43.47;20.60;;;;;;;;;;5029254;28;20168;-43
2021/12/28 03:46:26;;;;;;;45.22;22.05;;;;;;;;;;5029701;28;20017;-43
2021/12/28 03:48:52;;;;;;;43.00;22.52;;;;;;;;;;5013542;28;20478;-43
2021/12/28 03:51:19;;;;;;;41.20;22.02;;;;;;;;;;5012169;28;20060;-42
2021/12/28 03:53:46;;;;;;;48.33;21.65;;;;;;;;;;5009928;28;20076;-42
2021/12/28 03:56:12;;;;;;;44.00;21.08;;;;;;;;;;5010138;28;20049;-42
2021/12/28 03:58:39;;;;;;;43.50;20.73;;;;;;;;;;5011347;28;20052;-45
2021/12/28 04:01:05;;;;;;;46.28;22.42;;;;;;;;;;5014523;28;20062;-43
2021/12/28 04:03:31;;;;;;;41.05;21.70;;;;;;;;;;5012498;28;20025;-43
2021/12/28 04:05:59;;;;;;;44.20;20.98;;;;;;;;;;5012834;28;20613;-42
2021/12/28 04:08:27;;;;;;;41.13;20.63;;;;;;;;;;5017401;28;20042;-42
2021/12/28 04:11:00;;;;;;;41.13;21.80;;;;;;;;;;5009791;28;20513;-42
2021/12/28 04:13:26;;;;;;;45.08;22.85;;;;;;;;;;5012957;28;20076;-42
2021/12/28 04:15:52;;;;;;;45.50;21.60;;;;;;;;;;5012836;28;20034;-43
2021/12/28 04:18:19;;;;;;;43.60;21.17;;;;;;;;;;5012830;28;20053;-44
2021/12/28 04:20:45;;;;;;;40.00;20.30;;;;;;;;;;5012939;28;20479;-42
2021/12/28 04:23:11;;;;;;;43.67;21.77;;;;;;;;;;5013189;28;20028;-43
2021/12/28 04:25:37;;;;;;;42.58;21.90;;;;;;;;;;5012887;28;20032;-44
2021/12/28 04:28:04;;;;;;;39.67;21.13;;;;;;;;;;5014106;28;20069;-43
2021/12/28 04:30:29;;;;;;;41.00;21.65;;;;;;;;;;5015993;28;20026;-44
2021/12/28 04:32:55;;;;;;;44.63;20.80;;;;;;;;;;5009377;28;20029;-43
2021/12/28 04:35:21;;;;;;;42.35;21.23;;;;;;;;;;5012137;28;20485;-42
2021/12/28 04:37:47;;;;;;;41.42;19.88;;;;;;;;;;5012062;28;20033;-43
2021/12/28 04:40:14;;;;;;;43.45;20.75;;;;;;;;;;5012180;28;20021;-43
2021/12/28 04:42:41;;;;;;;44.88;20.50;;;;;;;;;;5014751;28;20473;-41
2021/12/28 04:45:09;;;;;;;39.03;20.17;;;;;;;;;;5009912;28;20027;-43
2021/12/28 04:47:35;;;;;;;39.55;19.30;;;;;;;;;;5014007;28;20063;-44
2021/12/28 04:50:01;;;;;;;44.83;21.40;;;;;;;;;;5013276;28;20021;-43
2021/12/28 04:52:30;;;;;;;41.70;22.02;;;;;;;;;;5015618;28;20527;-43
2021/12/28 04:54:56;;;;;;;40.33;20.88;;;;;;;;;;5016958;28;20030;-42
2021/12/28 04:57:22;;;;;;;38.67;20.80;;;;;;;;;;5017269;28;20411;-44
2021/12/28 04:59:48;;;;;;;39.70;19.55;;;;;;;;;;5012909;28;20022;-42
2021/12/28 05:02:14;;;;;;;42.13;20.08;;;;;;;;;;5014960;28;20103;-42
2021/12/28 05:04:41;;;;;;;46.05;22.58;;;;;;;;;;5016426;28;20519;-42
2021/12/28 05:07:07;;;;;;;49.75;22.38;;;;;;;;;;5015854;28;20082;-42
2021/12/28 05:09:33;;;;;;;41.30;21.65;;;;;;;;;;5012315;28;20026;-43
2021/12/28 05:11:59;;;;;;;38.53;20.27;;;;;;;;;;5015559;28;20504;-44
2021/12/28 05:14:25;;;;;;;47.80;22.75;;;;;;;;;;5016290;28;20025;-45
2021/12/28 05:16:51;;;;;;;48.15;22.30;;;;;;;;;;5015649;28;20537;-43
2021/12/28 05:19:17;;;;;;;44.78;22.27;;;;;;;;;;5019902;28;20022;-45
2021/12/28 05:21:43;;;;;;;41.03;20.67;;;;;;;;;;5017505;28;20045;-44
2021/12/28 05:24:09;;;;;;;43.88;21.83;;;;;;;;;;5018420;28;20049;-43
2021/12/28 05:26:35;;;;;;;46.47;21.38;;;;;;;;;;5013259;28;20076;-43
2021/12/28 05:29:01;;;;;;;41.67;21.25;;;;;;;;;;5016016;28;20038;-44
2021/12/28 05:31:28;;;;;;;41.30;21.80;;;;;;;;;;5012184;28;20022;-42
2021/12/28 05:33:54;;;;;;;42.58;21.15;;;;;;;;;;5012487;28;20053;-43
2021/12/28 05:36:21;;;;;;;43.35;21.25;;;;;;;;;;5017758;28;20026;-43
2021/12/28 05:38:47;;;;;;;37.20;21.40;;;;;;;;;;5020819;28;20034;-44
2021/12/28 05:41:13;;;;;;;44.28;20.60;;;;;;;;;;5018173;28;20022;-42
2021/12/28 05:43:39;;;;;;;45.60;22.35;;;;;;;;;;5015288;28;20565;-42
2021/12/28 05:46:05;;;;;;;45.25;22.42;;;;;;;;;;5013097;28;20057;-42
2021/12/28 05:48:32;;;;;;;44.35;22.23;;;;;;;;;;5012829;28;20037;-43
2021/12/28 05:50:58;;;;;;;45.10;22.70;;;;;;;;;;5014402;28;20508;-43
2021/12/28 05:53:24;;;;;;;40.80;21.27;;;;;;;;;;5022170;28;20017;-43
2021/12/28 05:55:50;;;;;;;47.70;23.00;;;;;;;;;;5031612;28;20037;-43
2021/12/28 05:58:16;;;;;;;47.13;22.25;;;;;;;;;;5031776;28;20021;-43
2021/12/28 06:00:43;;;;;;;49.28;23.75;;;;;;;;;;5014330;28;20055;-43
2021/12/28 06:03:09;;;;;;;45.45;23.83;;;;;;;;;;5032341;28;20116;-43
2021/12/28 06:05:35;;;;;;;47.95;23.58;;;;;;;;;;5032276;28;20029;-43
2021/12/28 06:08:01;;;;;;;46.20;23.88;;;;;;;;;;5033048;28;20472;-42
2021/12/28 06:10:27;;;;;;;53.78;23.90;;;;;;;;;;5033408;28;20069;-42
2021/12/28 06:12:53;;;;;;;47.97;24.58;;;;;;;;;;5031791;28;20365;-43
2021/12/28 06:15:19;;;;;;;50.20;25.02;;;;;;;;;;5031875;28;20427;-42
2021/12/28 06:17:45;;;;;;;49.35;23.15;;;;;;;;;;5032135;28;20468;-43
2021/12/28 06:20:11;;;;;;;55.38;26.55;;;;;;;;;;5033885;28;20030;-44
2021/12/28 06:22:37;;;;;;;53.78;25.25;;;;;;;;;;5031528;28;20025;-42
2021/12/28 06:25:06;;;;;;;52.30;26.38;;;;;;;;;;5031967;28;20415;-44
2021/12/28 06:27:32;;;;;;;49.25;23.55;;;;;;;;;;5031933;28;20108;-44
2021/12/28 06:29:58;;;;;;;55.10;26.02;;;;;;;;;;5031746;28;20097;-43
2021/12/28 06:32:24;;;;;;;51.80;24.38;;;;;;;;;;5032130;28;20095;-43
2021/12/28 06:34:50;;;;;;;53.95;25.92;;;;;;;;;;5031802;28;20034;-45
2021/12/28 06:37:16;;;;;;;52.50;24.95;;;;;;;;;;5013359;28;20024;-43
2021/12/28 06:39:42;;;;;;;54.35;25.65;;;;;;;;;;5030617;28;20029;-43
2021/12/28 06:42:08;;;;;;;55.33;25.65;;;;;;;;;;5031157;28;20052;-42
2021/12/28 06:44:34;;;;;;;51.72;25.30;;;;;;;;;;5031754;28;20488;-43
2021/12/28 06:47:00;;;;;;;52.50;24.88;;;;;;;;;;5031052;28;20060;-42
2021/12/28 06:49:26;;;;;;;58.03;25.35;;;;;;;;;;5031481;28;20060;-42
2021/12/28 06:51:52;;;;;;;51.35;23.85;;;;;;;;;;5031522;28;20072;-42
2021/12/28 06:54:18;;;;;;;52.65;25.10;;;;;;;;;;5025826;28;20374;-41
2021/12/28 06:56:44;;;;;;;52.33;24.20;;;;;;;;;;5015529;28;20145;-44
2021/12/28 06:59:10;;;;;;;50.05;23.38;;;;;;;;;;5018002;28;20105;-43
2021/12/28 07:01:36;;;;;;;53.72;24.02;;;;;;;;;;5015516;28;20026;-42
2021/12/28 07:04:03;;;;;;;53.85;25.13;;;;;;;;;;5017909;28;20022;-43
2021/12/28 07:06:29;;;;;;;50.75;25.77;;;;;;;;;;5017331;28;20022;-42
2021/12/28 07:08:55;;;;;;;54.42;25.30;;;;;;;;;;5017979;28;20048;-43
2021/12/28 07:11:21;;;;;;;55.28;25.58;;;;;;;;;;5017647;28;20053;-41
2021/12/28 07:13:47;;;;;;;51.03;25.58;;;;;;;;;;5021016;28;20025;-43
2021/12/28 07:16:13;;;;;;;51.35;25.25;;;;;;;;;;5020819;28;20124;-42
2021/12/28 07:18:40;;;;;;;48.08;24.80;;;;;;;;;;5015422;28;20045;-42
2021/12/28 07:21:06;;;;;;;55.40;23.70;;;;;;;;;;5043822;23;20049;-42
2021/12/28 07:23:32;;;;;;;50.65;25.95;;;;;;;;;;5023342;28;20044;-43
2021/12/28 07:25:58;;;;;;;52.45;25.00;;;;;;;;;;5025855;28;20026;-43
2021/12/28 07:28:25;;;;;;;46.88;24.15;;;;;;;;;;5022326;28;20036;-44
2021/12/28 07:30:52;;;;;;;54.45;26.52;;;;;;;;;;5022070;28;20054;-43
2021/12/28 07:33:18;;;;;;;53.15;25.70;;;;;;;;;;5023535;28;20023;-43
2021/12/28 07:35:44;;;;;;;58.15;24.90;;;;;;;;;;5023416;28;20053;-45
2021/12/28 07:38:10;;;;;;;52.50;24.85;;;;;;;;;;5034091;28;20045;-42
2021/12/28 07:40:37;;;;;;;48.50;24.65;;;;;;;;;;5036146;28;20022;-43
2021/12/28 07:43:03;;;;;;;56.95;26.30;;;;;;;;;;5031601;28;20447;-43
2021/12/28 07:45:29;;;;;;;58.47;26.45;;;;;;;;;;5031341;28;20518;-43
2021/12/28 07:47:55;;;;;;;52.15;26.00;;;;;;;;;;5032864;28;20372;-43
2021/12/28 07:50:22;;;;;;;51.92;25.02;;;;;;;;;;5031646;28;20021;-43
2021/12/28 07:52:49;;;;;;;54.75;26.15;;;;;;;;;;5030851;28;20033;-42
2021/12/28 07:55:15;;;;;;;51.72;25.75;;;;;;;;;;5030801;28;20030;-43
2021/12/28 07:57:41;;;;;;;50.35;24.90;;;;;;;;;;5031032;28;20115;-44
2021/12/28 08:00:10;;;;;;;54.42;24.63;;;;;;;;;;5041698;28;20029;-42
2021/12/28 08:02:36;;;;;;;52.10;25.38;;;;;;;;;;5030810;28;20026;-43
2021/12/28 08:05:02;;;;;;;55.75;25.48;;;;;;;;;;5030132;28;20029;-41
2021/12/28 08:07:29;;;;;;;52.78;25.75;;;;;;;;;;5030567;28;20592;-42
2021/12/28 08:09:55;;;;;;;52.85;26.42;;;;;;;;;;5027800;28;20042;-42
2021/12/28 08:12:21;;;;;;;53.55;26.05;;;;;;;;;;5029078;28;20099;-44
2021/12/28 08:14:47;;;;;;;50.85;24.95;;;;;;;;;;5027604;28;20064;-46
2021/12/28 08:17:13;;;;;;;55.20;25.85;;;;;;;;;;5032169;28;20113;-43
2021/12/28 08:19:39;;;;;;;51.47;24.75;;;;;;;;;;5030224;28;20045;-41
2021/12/28 08:22:05;;;;;;;55.08;24.42;;;;;;;;;;5034894;28;20022;-42
2021/12/28 08:24:33;;;;;;;50.08;24.75;;;;;;;;;;5030471;28;20550;-42
2021/12/28 08:26:59;;;;;;;59.20;25.00;;;;;;;;;;5031794;28;20030;-42
2021/12/28 08:29:25;;;;;;;54.97;25.80;;;;;;;;;;5031883;28;20072;-43
2021/12/28 08:31:51;;;;;;;47.80;25.17;;;;;;;;;;5032172;28;20033;-45
2021/12/28 08:34:18;;;;;;;49.78;24.35;;;;;;;;;;5035414;28;20018;-43
2021/12/28 08:36:44;;;;;;;55.38;25.20;;;;;;;;;;5033924;28;20373;-42
2021/12/28 08:39:10;;;;;;;59.30;25.40;;;;;;;;;;5033004;28;20060;-44
2021/12/28 08:41:36;;;;;;;49.53;24.20;;;;;;;;;;5032933;28;20031;-42
2021/12/28 08:44:02;;;;;;;55.92;25.92;;;;;;;;;;5033528;28;20025;-42
2021/12/28 08:46:29;;;;;;;50.60;25.35;;;;;;;;;;5034119;28;20061;-44
2021/12/28 08:48:55;;;;;;;49.00;23.85;;;;;;;;;;5034759;28;20503;-39
2021/12/28 08:51:21;;;;;;;49.97;25.17;;;;;;;;;;5041586;28;20472;-43
2021/12/28 08:53:47;;;;;;;55.17;25.70;;;;;;;;;;5033713;28;20068;-43
2021/12/28 08:56:14;;;;;;;55.20;24.42;;;;;;;;;;5033856;28;20021;-44
2021/12/28 08:58:40;;;;;;;51.03;23.60;;;;;;;;;;5035164;28;20029;-42
2021/12/28 09:01:06;;;;;;;48.00;22.92;;;;;;;;;;5034486;28;20070;-42
2021/12/28 09:03:32;;;;;;;57.58;26.27;;;;;;;;;;5035732;28;20022;-43
2021/12/28 09:06:00;;;;;;;58.40;24.27;;;;;;;;;;5034471;28;20029;-41
2021/12/28 09:08:26;;;;;;;59.85;25.00;;;;;;;;;;5033956;28;20112;-42
2021/12/28 09:10:52;;;;;;;62.35;26.33;;;;;;;;;;5036118;28;20026;-41
2021/12/28 09:13:19;;;;;;;51.38;24.27;;;;;;;;;;5035437;28;20038;-41
2021/12/28 09:15:45;;;;;;;53.63;24.50;;;;;;;;;;5036459;28;20025;-42
2021/12/28 09:18:12;;;;;;;55.13;24.80;;;;;;;;;;5035875;28;20026;-42
2021/12/28 09:20:38;;;;;;;54.85;24.05;;;;;;;;;;5034019;28;20017;-43
2021/12/28 09:23:04;;;;;;;48.72;24.08;;;;;;;;;;5034435;28;20125;-42
2021/12/28 09:25:30;;;;;;;53.30;24.88;;;;;;;;;;5034745;28;20025;-41
2021/12/28 09:27:56;;;;;;;51.30;24.77;;;;;;;;;;5035521;28;20075;-41
2021/12/28 09:30:22;;;;;;;57.40;23.83;;;;;;;;;;5039457;28;20065;-42
2021/12/28 09:32:49;;;;;;;51.42;23.88;;;;;;;;;;5037843;28;20057;-41
2021/12/28 09:35:16;;;;;;;45.88;22.08;;;;;;;;;;5043646;28;20071;-42
2021/12/28 09:37:42;;;;;;;52.00;22.83;;;;;;;;;;5043278;28;20613;-44
2021/12/28 09:40:10;;;;;;;54.47;24.40;;;;;;;;;;5043608;28;20736;-42
2021/12/28 09:42:36;;;;;;;48.80;24.10;;;;;;;;;;5028990;28;20013;-43
2021/12/28 09:45:03;;;;;;;49.33;23.75;;;;;;;;;;5034559;28;20033;-43
2021/12/28 09:47:29;;;;;;;47.85;23.10;;;;;;;;;;5035359;28;20057;-42
2021/12/28 09:49:55;;;;;;;52.22;22.55;;;;;;;;;;5032866;28;20091;-42
2021/12/28 09:52:21;;;;;;;49.15;23.17;;;;;;;;;;5034526;28;20029;-42
2021/12/28 09:54:47;;;;;;;58.88;23.52;;;;;;;;;;5033688;28;20109;-42
2021/12/28 09:57:14;;;;;;;48.97;24.50;;;;;;;;;;5033712;28;20041;-43
2021/12/28 09:59:40;;;;;;;47.28;22.02;;;;;;;;;;5032669;28;20025;-39
2021/12/28 10:02:10;;;;;;;58.85;22.63;;;;;;;;;;5042830;28;20028;-43
2021/12/28 10:04:36;;;;;;;49.50;24.00;;;;;;;;;;5042302;28;20171;-41
2021/12/28 10:07:20;;;;;;;55.47;22.92;;;;;;;;;;5037936;28;20022;-41
2021/12/28 10:09:46;;;;;;;51.97;23.35;;;;;;;;;;5040866;28;20060;-40
2021/12/28 10:12:12;;;;;;;53.00;23.50;;;;;;;;;;5038640;28;20048;-40
2021/12/28 10:14:38;;;;;;;48.13;22.55;;;;;;;;;;5038255;28;20030;-40
2021/12/28 10:17:05;;;;;;;47.28;22.10;;;;;;;;;;5038791;28;20031;-42
2021/12/28 10:19:31;;;;;;;49.70;23.65;;;;;;;;;;5039238;28;20013;-41
2021/12/28 10:21:58;;;;;;;49.42;22.13;;;;;;;;;;5036140;28;20408;-41
2021/12/28 10:24:34;;;;;;;46.53;22.48;;;;;;;;;;5033632;28;20037;-40
2021/12/28 10:27:13;;;;;;;57.72;25.13;;;;;;;;;;5032739;28;20025;-43
2021/12/28 10:29:39;;;;;;;50.63;23.13;;;;;;;;;;5031086;28;20037;-40
2021/12/28 10:32:40;;;;;;;52.85;22.58;;;;;;;;;;5027355;28;20028;-42
2021/12/28 10:35:08;;;;;;;46.17;22.38;;;;;;;;;;4969015;28;20077;-41
2021/12/28 10:37:36;;;;;;;54.00;23.00;;;;;;;;;;5020223;28;20037;-42
2021/12/28 10:40:04;;;;;;;52.38;22.80;;;;;;;;;;5033254;28;20029;-41
2021/12/28 10:42:42;;;;;;;52.83;22.60;;;;;;;;;;5032642;28;20029;-41
2021/12/28 10:45:09;;;;;;;43.08;21.13;;;;;;;;;;5033433;28;20160;-43
2021/12/28 10:47:35;;;;;;;41.90;20.58;;;;;;;;;;5032359;28;20057;-41
2021/12/28 10:50:08;;;;;;;40.92;20.58;;;;;;;;;;5031611;28;20033;-42
2021/12/28 10:52:39;;;;;;;42.85;20.95;;;;;;;;;;5030225;28;20036;-41
2021/12/28 10:55:18;;;;;;;42.92;21.83;;;;;;;;;;5029779;28;20040;-39
2021/12/28 10:57:44;;;;;;;42.72;21.98;;;;;;;;;;5030157;28;20029;-41
2021/12/28 11:00:26;;;;;;;46.10;19.85;;;;;;;;;;5029450;28;20028;-42
2021/12/28 11:03:18;;;;;;;47.95;19.85;;;;;;;;;;5026725;28;20021;-41
2021/12/28 11:05:45;;;;;;;47.40;20.52;;;;;;;;;;5027935;28;20803;-44
2021/12/28 11:08:12;;;;;;;45.17;20.10;;;;;;;;;;5031081;28;20049;-42
2021/12/28 11:10:44;;;;;;;44.58;21.52;;;;;;;;;;5030830;28;20025;-42
2021/12/28 11:13:12;;;;;;;43.80;21.45;;;;;;;;;;4996957;28;20484;-41
2021/12/28 11:15:40;;;;;;;48.65;21.60;;;;;;;;;;5029695;28;20017;-42
2021/12/28 11:18:16;;;;;;;48.70;21.95;;;;;;;;;;5032576;28;20120;-43
2021/12/28 11:20:43;;;;;;;38.75;20.30;;;;;;;;;;5032418;28;20120;-43
2021/12/28 11:23:14;;;;;;;40.83;19.10;;;;;;;;;;5013647;28;20033;-42
2021/12/28 11:25:40;;;;;;;42.55;19.35;;;;;;;;;;5032776;28;20025;-42
2021/12/28 11:28:23;;;;;;;39.80;20.13;;;;;;;;;;5031972;28;20143;-41
2021/12/28 11:31:07;;;;;;;39.55;19.08;;;;;;;;;;5032240;28;20037;-43
2021/12/28 11:33:42;;;;;;;41.30;19.73;;;;;;;;;;5032305;28;20033;-42
2021/12/28 11:36:08;;;;;;;45.50;18.65;;;;;;;;;;5032443;28;20053;-41
2021/12/28 11:38:35;;;;;;;42.63;18.63;;;;;;;;;;5032098;28;20048;-42
2021/12/28 11:41:01;;;;;;;41.60;18.98;;;;;;;;;;5031206;28;20022;-43
2021/12/28 11:43:27;;;;;;;37.28;17.67;;;;;;;;;;5029780;28;20492;-42
2021/12/28 11:45:53;;;;;;;37.97;17.38;;;;;;;;;;5031465;28;20378;-41
2021/12/28 11:48:19;;;;;;;34.55;18.88;;;;;;;;;;5030356;28;20053;-41
2021/12/28 11:50:45;;;;;;;46.03;19.83;;;;;;;;;;5030103;28;20045;-42
2021/12/28 11:53:14;;;;;;;44.63;20.42;;;;;;;;;;5029822;28;20029;-43
2021/12/28 11:55:41;;;;;;;41.22;20.50;;;;;;;;;;5026304;28;20018;-41
2021/12/28 11:58:07;;;;;;;34.15;17.77;;;;;;;;;;5036043;28;20482;-42
2021/12/28 12:00:38;;;;;;;41.92;18.02;;;;;;;;;;5043423;28;20059;-42
2021/12/28 12:03:06;;;;;;;43.47;23.42;;;;;;;;;;5038896;28;20056;-40
2021/12/28 12:05:32;;;;;;;44.20;19.55;;;;;;;;;;5038767;28;20013;-42
2021/12/28 12:08:04;;;;;;;44.83;20.42;;;;;;;;;;5037957;28;20028;-41
2021/12/28 12:10:31;;;;;;;38.13;20.17;;;;;;;;;;5037677;28;20520;-40
2021/12/28 12:12:58;;;;;;;38.80;18.27;;;;;;;;;;5037383;28;20245;-42
2021/12/28 12:15:39;;;;;;;35.78;17.50;;;;;;;;;;5036771;28;20108;-40
2021/12/28 12:18:08;;;;;;;35.95;16.48;;;;;;;;;;5037871;28;20406;-41
2021/12/28 12:20:36;;;;;;;37.38;17.15;;;;;;;;;;5019675;28;20029;-41
2021/12/28 12:23:08;;;;;;;35.60;17.05;;;;;;;;;;5037345;28;20207;-40
2021/12/28 12:25:45;;;;;;;33.95;17.40;;;;;;;;;;5038132;28;20078;-42
2021/12/28 12:28:12;;;;;;;37.45;17.17;;;;;;;;;;5037766;28;20049;-41
2021/12/28 12:30:43;;;;;;;31.70;15.82;;;;;;;;;;5037904;28;20059;-39
2021/12/28 12:33:10;;;;;;;38.10;17.75;;;;;;;;;;5038487;28;20022;-39
2021/12/28 12:35:40;;;;;;;32.47;16.05;;;;;;;;;;5037986;28;20057;-40
2021/12/28 12:38:15;;;;;;;38.28;17.02;;;;;;;;;;5038433;28;20432;-42
2021/12/28 12:41:00;;;;;;;31.58;16.30;;;;;;;;;;5037290;28;20017;-41
2021/12/28 12:43:26;;;;;;;38.20;16.73;;;;;;;;;;5035591;28;20509;-43
2021/12/28 12:45:52;;;;;;;32.95;17.05;;;;;;;;;;5040722;28;20029;-43
2021/12/28 12:48:30;;;;;;;34.42;18.55;;;;;;;;;;5036962;28;20025;-42
2021/12/28 12:51:29;;;;;;;37.13;18.58;;;;;;;;;;5035782;28;20029;-42
2021/12/28 12:54:12;;;;;;;33.40;17.67;;;;;;;;;;4989089;28;20079;-41
2021/12/28 12:56:40;;;;;;;38.35;17.13;;;;;;;;;;5024806;28;20025;-40
2021/12/28 12:59:09;;;;;;;40.67;17.85;;;;;;;;;;5036791;28;20108;-42
2021/12/28 13:01:41;;;;;;;42.25;19.33;;;;;;;;;;5037708;28;20049;-41
2021/12/28 13:04:25;;;;;;;41.40;18.63;;;;;;;;;;5036804;28;20025;-42
2021/12/28 13:07:01;;;;;;;36.10;19.10;;;;;;;;;;5038273;28;20030;-41
2021/12/28 13:09:26;;;;;;;41.60;19.15;;;;;;;;;;5033142;28;20026;-43
2021/12/28 13:11:53;;;;;;;35.63;18.25;;;;;;;;;;5034441;28;20388;-42
2021/12/28 13:14:19;;;;;;;37.15;18.88;;;;;;;;;;5030475;28;20037;-41
2021/12/28 13:17:01;;;;;;;35.97;18.55;;;;;;;;;;5031627;28;20480;-43
2021/12/28 13:19:28;;;;;;;43.35;19.92;;;;;;;;;;5033250;28;20025;-41
2021/12/28 13:22:07;;;;;;;41.97;19.15;;;;;;;;;;5032026;28;20037;-42
2021/12/28 13:24:34;;;;;;;40.10;19.98;;;;;;;;;;5032306;28;20083;-40
2021/12/28 13:27:01;;;;;;;39.45;20.65;;;;;;;;;;5031884;28;20066;-41
2021/12/28 13:29:30;;;;;;;38.83;20.58;;;;;;;;;;5028376;28;20033;-40
2021/12/28 13:32:16;;;;;;;38.47;21.38;;;;;;;;;;5032912;28;20480;-42
2021/12/28 13:35:02;;;;;;;44.15;20.75;;;;;;;;;;5035682;28;20112;-41
2021/12/28 13:37:40;;;;;;;46.08;20.98;;;;;;;;;;5035697;28;20021;-42
2021/12/28 13:40:23;;;;;;;42.50;19.58;;;;;;;;;;5050273;22;20132;-37
2021/12/28 13:42:55;;;;;;;42.97;20.70;;;;;;;;;;5029356;28;20029;-34
2021/12/28 13:45:30;;;;;;;50.88;21.50;;;;;;;;;;5031352;28;20061;-36
2021/12/28 13:47:57;;;;;;;45.88;21.13;;;;;;;;;;5031029;28;20022;-35
2021/12/28 13:50:23;;;;;;;46.30;22.50;;;;;;;;;;5024028;28;20057;-36
2021/12/28 13:52:59;;;;;;;53.03;22.70;;;;;;;;;;5023238;28;20065;-35
2021/12/28 13:55:33;;;;;;;45.30;22.75;;;;;;;;;;5015504;28;20018;-36
2021/12/28 13:58:01;;;;;;;52.45;23.23;;;;;;;;;;5028352;28;20032;-35
2021/12/28 14:00:29;;;;;;;49.13;23.02;;;;;;;;;;5013434;28;20025;-35
2021/12/28 14:02:57;;;;;;;54.28;23.85;;;;;;;;;;5015127;28;20024;-35
2021/12/28 14:05:23;;;;;;;50.78;23.77;;;;;;;;;;5025613;28;20033;-36
2021/12/28 14:07:49;;;;;;;54.25;25.13;;;;;;;;;;5034931;28;20100;-35
2021/12/28 14:10:15;;;;;;;47.90;23.20;;;;;;;;;;5037274;28;20468;-37
2021/12/28 14:12:42;;;;;;;55.38;24.42;;;;;;;;;;5024850;28;20060;-36
2021/12/28 14:15:13;;;;;;;55.45;24.55;;;;;;;;;;5029929;28;20060;-36
2021/12/28 14:17:39;;;;;;;47.80;24.10;;;;;;;;;;5029324;28;20368;-36
2021/12/28 14:20:05;;;;;;;55.88;23.85;;;;;;;;;;5035544;28;20121;-35
2021/12/28 14:22:31;;;;;;;54.28;24.98;;;;;;;;;;5004721;28;20030;-35